createdAt,value
2023-03-31T00:02:18.653Z,3.3
2023-03-31T00:05:20.577Z,6
2023-03-31T00:08:22.544Z,4.3
2023-03-31T00:11:24.515Z,3.4
2023-03-31T00:14:26.458Z,6.3
2023-03-31T00:17:28.428Z,4.3
2023-03-31T00:20:30.373Z,7.1
2023-03-31T00:23:32.342Z,3.1
2023-03-31T00:26:34.300Z,5.5
2023-03-31T00:29:36.293Z,4.3
2023-03-31T00:32:38.222Z,3.6
2023-03-31T00:35:40.256Z,7.3
2023-03-31T00:38:42.187Z,3.5
2023-03-31T00:41:44.096Z,6.4
2023-03-31T00:44:46.061Z,7.4
2023-03-31T00:47:48.061Z,6.6
2023-03-31T00:50:50.047Z,8.2
2023-03-31T00:53:52.011Z,6.6
2023-03-31T00:56:53.986Z,8.3
2023-03-31T00:59:55.932Z,5.1
2023-03-31T01:02:58.019Z,3.6
2023-03-31T01:05:59.932Z,6.5
2023-03-31T01:09:01.871Z,7.1
2023-03-31T01:12:03.822Z,6.1
2023-03-31T01:15:05.804Z,4.6
2023-03-31T01:18:07.792Z,6.2
2023-03-31T01:21:09.764Z,8.1
2023-03-31T01:24:11.708Z,4.8
2023-03-31T01:27:13.627Z,4.3
2023-03-31T01:30:15.580Z,4
2023-03-31T01:33:17.544Z,8.2
2023-03-31T01:36:19.493Z,4.3
2023-03-31T01:39:21.484Z,5.6
2023-03-31T01:42:23.423Z,5.1
2023-03-31T01:45:25.375Z,5.3
2023-03-31T01:48:27.376Z,4.7
2023-03-31T01:51:29.346Z,6.6
2023-03-31T01:54:31.294Z,5.6
2023-03-31T01:57:33.218Z,7.2
2023-03-31T02:00:35.259Z,5.6
2023-03-31T02:03:37.265Z,5.6
2023-03-31T02:06:39.108Z,7.1
2023-03-31T02:09:41.092Z,7.3
2023-03-31T02:12:43.068Z,5.8
2023-03-31T02:15:44.984Z,7.2
2023-03-31T02:18:46.952Z,6.8
2023-03-31T02:21:48.954Z,4.1
2023-03-31T02:24:50.975Z,7.7
2023-03-31T02:27:52.929Z,5.4
2023-03-31T02:30:54.872Z,8.8
2023-03-31T02:33:56.861Z,4
2023-03-31T02:36:58.781Z,6.3
2023-03-31T02:40:00.744Z,7.7
2023-03-31T02:43:02.728Z,4.9
2023-03-31T02:46:04.759Z,4.9
2023-03-31T02:49:06.646Z,4.5
2023-03-31T02:52:08.574Z,6.5
2023-03-31T02:55:10.611Z,7.2
2023-03-31T02:58:12.584Z,6.3
2023-03-31T03:01:14.567Z,6.3
2023-03-31T03:04:16.472Z,7.9
2023-03-31T03:07:18.433Z,6.7
2023-03-31T03:10:20.390Z,8.2
2023-03-31T03:13:22.375Z,5.7
2023-03-31T03:16:24.392Z,9.8
2023-03-31T03:19:26.279Z,5.5
2023-03-31T03:22:28.418Z,8
2023-03-31T03:25:30.223Z,10.9
2023-03-31T03:28:32.167Z,8.8
2023-03-31T03:31:34.142Z,7.6
2023-03-31T03:34:36.112Z,7.4
2023-03-31T03:37:38.070Z,7.9
2023-03-31T03:40:40.039Z,7.9
2023-03-31T03:43:42.042Z,5.8
2023-03-31T03:46:44.109Z,7.2
2023-03-31T03:49:45.985Z,6.3
2023-03-31T03:52:47.940Z,8.2
2023-03-31T03:55:49.879Z,6.8
2023-03-31T03:58:51.840Z,5.7
2023-03-31T04:01:53.843Z,8.1
2023-03-31T04:04:55.848Z,9.2
2023-03-31T04:07:57.732Z,8.9
2023-03-31T04:10:59.698Z,8.3
2023-03-31T04:14:01.680Z,8.7
2023-03-31T04:17:03.602Z,10.7
2023-03-31T04:20:05.591Z,5.1
2023-03-31T04:23:07.530Z,6.1
2023-03-31T04:26:09.510Z,8.1
2023-03-31T04:29:11.530Z,6.7
2023-03-31T04:32:13.590Z,5.1
2023-03-31T04:35:15.462Z,5.9
2023-03-31T04:38:17.409Z,6.3
2023-03-31T04:41:19.425Z,7.5
2023-03-31T04:44:21.380Z,8.9
2023-03-31T04:47:23.356Z,12.9
2023-03-31T04:50:25.286Z,11.5
2023-03-31T04:53:27.235Z,13.2
2023-03-31T04:56:29.228Z,10.7
2023-03-31T04:59:31.172Z,8.6
2023-03-31T05:02:33.193Z,5.9
2023-03-31T05:05:35.096Z,6.3
2023-03-31T05:08:37.073Z,7.1
2023-03-31T05:11:39.056Z,10.9
2023-03-31T05:14:41.032Z,5.9
2023-03-31T05:17:42.972Z,5.8
2023-03-31T05:20:44.919Z,5.6
2023-03-31T05:23:46.899Z,9.9
2023-03-31T05:26:48.849Z,12.6
2023-03-31T05:29:50.802Z,6.6
2023-03-31T05:32:52.860Z,6.4
2023-03-31T05:35:54.739Z,8.8
2023-03-31T05:38:56.750Z,8
2023-03-31T05:41:58.658Z,6.8
2023-03-31T05:45:00.588Z,6.8
2023-03-31T05:48:02.656Z,5.5
2023-03-31T05:51:04.511Z,6.5
2023-03-31T05:54:06.568Z,8.2
2023-03-31T05:57:08.488Z,6.8
2023-03-31T06:00:10.445Z,9.7
2023-03-31T06:03:12.464Z,10
2023-03-31T06:06:14.335Z,11.4
2023-03-31T06:09:16.281Z,8.6
2023-03-31T06:12:18.258Z,9.5
2023-03-31T06:15:20.190Z,8.2
2023-03-31T06:18:22.181Z,9.4
2023-03-31T06:21:24.165Z,10.2
2023-03-31T06:24:26.089Z,8.6
2023-03-31T06:27:28.066Z,7.9
2023-03-31T06:30:30.018Z,8.2
2023-03-31T06:33:32.048Z,11.6
2023-03-31T06:36:33.987Z,5.9
2023-03-31T06:39:35.917Z,4.1
2023-03-31T06:42:37.903Z,8.1
2023-03-31T06:45:39.871Z,10.5
2023-03-31T06:48:41.843Z,7.4
2023-03-31T06:51:43.781Z,9.2
2023-03-31T06:54:45.780Z,8.4
2023-03-31T06:57:47.758Z,10.5
2023-03-31T07:00:49.673Z,8.3
2023-03-31T07:03:51.667Z,7.7
2023-03-31T07:06:53.589Z,8.2
2023-03-31T07:09:56.295Z,7.8
2023-03-31T07:12:57.555Z,6.9
2023-03-31T07:15:59.534Z,10.7
2023-03-31T07:19:01.472Z,8.5
2023-03-31T07:22:03.412Z,8.9
2023-03-31T07:25:05.602Z,5.3
2023-03-31T07:28:07.343Z,11.5
2023-03-31T07:31:09.335Z,8.3
2023-03-31T07:34:11.513Z,13.1
2023-03-31T07:37:13.261Z,10.7
2023-03-31T07:40:15.246Z,7.5
2023-03-31T07:43:17.177Z,10.2
2023-03-31T07:46:19.214Z,9.8
2023-03-31T07:49:21.080Z,10.2
2023-03-31T07:52:23.128Z,10.2
2023-03-31T07:55:25.100Z,8.3
2023-03-31T07:58:27.146Z,5.1
2023-03-31T08:01:29.028Z,7.1
2023-03-31T08:04:30.984Z,5.1
2023-03-31T08:07:32.902Z,7.4
2023-03-31T08:10:34.912Z,7.8
2023-03-31T08:13:36.834Z,6.2
2023-03-31T08:16:38.824Z,7.3
2023-03-31T08:19:40.753Z,9.3
2023-03-31T08:22:42.764Z,6.1
2023-03-31T08:25:44.701Z,10.2
2023-03-31T08:28:46.969Z,10.3
2023-03-31T08:31:48.660Z,6.9
2023-03-31T08:34:50.581Z,8.8
2023-03-31T08:37:52.551Z,8.5
2023-03-31T08:40:54.509Z,8.1
2023-03-31T08:43:56.475Z,6.6
2023-03-31T08:46:58.431Z,8
2023-03-31T08:50:00.434Z,8.3
2023-03-31T08:53:02.367Z,5.9
2023-03-31T08:56:04.609Z,6.5
2023-03-31T08:59:06.276Z,9.7
2023-03-31T09:02:08.308Z,8.2
2023-03-31T09:05:10.228Z,8.7
2023-03-31T09:08:12.234Z,7.2
2023-03-31T09:11:14.201Z,9.6
2023-03-31T09:14:16.218Z,7.2
2023-03-31T09:17:18.132Z,6.7
2023-03-31T09:20:20.095Z,5
2023-03-31T09:23:22.022Z,10.5
2023-03-31T09:26:23.982Z,6.6
2023-03-31T09:29:25.969Z,5.8
2023-03-31T09:32:27.911Z,6.2
2023-03-31T09:35:29.908Z,6.9
2023-03-31T09:38:31.841Z,5
2023-03-31T09:41:34.339Z,5.2
2023-03-31T09:44:35.947Z,5.9
2023-03-31T09:47:37.728Z,3.9
2023-03-31T09:50:39.676Z,3
2023-03-31T09:53:41.640Z,3.9
2023-03-31T09:56:43.684Z,6.9
2023-03-31T09:59:45.566Z,5
2023-03-31T10:02:47.559Z,6.4
2023-03-31T10:05:49.514Z,4.4
2023-03-31T10:08:51.499Z,5
2023-03-31T10:11:53.481Z,5
2023-03-31T10:14:55.394Z,5.8
2023-03-31T10:17:57.372Z,5.2
2023-03-31T10:20:59.339Z,6.2
2023-03-31T10:24:01.286Z,8.2
2023-03-31T10:27:03.330Z,6.4
2023-03-31T10:30:05.241Z,7.2
2023-03-31T10:33:15.471Z,11.3
2023-03-31T10:36:09.257Z,12
2023-03-31T10:39:11.107Z,8.1
2023-03-31T10:42:13.082Z,4
2023-03-31T10:45:23.363Z,5.1
2023-03-31T10:48:17.004Z,6.8
2023-03-31T10:51:18.954Z,7.7
2023-03-31T10:54:20.905Z,7
2023-03-31T10:57:22.905Z,5.2
2023-03-31T11:00:24.845Z,3.1
2023-03-31T11:03:26.824Z,4.1
2023-03-31T11:06:28.733Z,3.6
2023-03-31T11:09:30.716Z,3
2023-03-31T11:12:32.693Z,2.5
2023-03-31T11:15:34.686Z,5
2023-03-31T11:18:36.619Z,3.9
2023-03-31T11:21:38.576Z,2.3
2023-03-31T11:24:40.525Z,1.9
2023-03-31T11:27:42.536Z,3.8
2023-03-31T11:30:44.519Z,3.6
2023-03-31T11:33:46.445Z,3.8
2023-03-31T11:36:48.370Z,3.1
2023-03-31T11:39:50.380Z,3.2
2023-03-31T11:42:52.302Z,6.6
2023-03-31T11:45:54.332Z,4.4
2023-03-31T11:48:56.241Z,6.3
2023-03-31T11:51:58.188Z,6.3
2023-03-31T11:55:02.350Z,6.1
2023-03-31T11:58:02.143Z,7.3
2023-03-31T12:01:04.095Z,7.3
2023-03-31T12:04:06.092Z,6.2
2023-03-31T12:07:08.048Z,9.7
2023-03-31T12:10:10.033Z,10.8
2023-03-31T12:13:11.957Z,10.6
2023-03-31T12:16:13.965Z,8.6
2023-03-31T12:19:15.862Z,10
2023-03-31T12:22:17.860Z,11
2023-03-31T12:25:19.800Z,12.8
2023-03-31T12:28:21.761Z,8.5
2023-03-31T12:31:23.762Z,10.9
2023-03-31T12:34:25.670Z,11.9
2023-03-31T12:37:27.631Z,8.6
2023-03-31T12:40:29.586Z,10.7
2023-03-31T12:43:31.578Z,6.3
2023-03-31T12:46:33.545Z,6
2023-03-31T12:49:35.514Z,7.7
2023-03-31T12:52:37.482Z,5.4
2023-03-31T12:55:39.414Z,6.1
2023-03-31T12:58:41.370Z,5.8
2023-03-31T13:01:43.372Z,5.3
2023-03-31T13:04:45.350Z,5.9
2023-03-31T13:07:47.323Z,4.4
2023-03-31T13:10:49.363Z,6.6
2023-03-31T13:16:55.103Z,5.6
2023-03-31T13:19:55.120Z,5.1
2023-03-31T13:22:57.083Z,6.6
2023-03-31T13:25:59.040Z,5.3
2023-03-31T13:29:01.015Z,5.8
2023-03-31T13:32:03.041Z,5.7
2023-03-31T13:35:04.953Z,5.8
2023-03-31T13:38:06.897Z,7
2023-03-31T13:41:08.871Z,5.4
2023-03-31T13:44:10.877Z,4.8
2023-03-31T13:47:12.787Z,3.1
2023-03-31T13:50:14.794Z,6.3
2023-03-31T13:53:16.752Z,2.6
2023-03-31T13:56:18.732Z,1.9
2023-03-31T13:59:20.643Z,1.8
2023-03-31T14:02:22.664Z,1.5
2023-03-31T14:05:24.576Z,4.1
2023-03-31T14:08:26.550Z,2.1
2023-03-31T14:11:28.516Z,1.8
2023-03-31T14:14:30.446Z,1.6
2023-03-31T14:17:32.454Z,2.6
2023-03-31T14:20:34.412Z,2.8
2023-03-31T14:23:36.425Z,2.1
2023-03-31T14:26:38.373Z,4.5
2023-03-31T14:29:40.328Z,3.4
2023-03-31T14:32:42.345Z,3.2
2023-03-31T14:35:44.299Z,4.1
2023-03-31T14:38:46.271Z,3.5
2023-03-31T14:41:48.254Z,2.4
2023-03-31T14:44:50.185Z,2.6
2023-03-31T14:47:52.175Z,5.9
2023-03-31T14:50:54.146Z,3.2
2023-03-31T14:53:56.190Z,4.7
2023-03-31T14:56:58.090Z,4.9
2023-03-31T15:00:00.034Z,2.4
2023-03-31T15:03:02.019Z,2.6
2023-03-31T15:06:03.907Z,3.6
2023-03-31T15:09:06.030Z,3.2
2023-03-31T15:12:07.886Z,3.3
2023-03-31T15:15:09.840Z,4.2
2023-03-31T15:18:11.964Z,6.1
2023-03-31T15:21:13.767Z,5.3
2023-03-31T15:24:15.758Z,4.2
2023-03-31T15:27:20.430Z,3.9
2023-03-31T15:30:19.696Z,3.3
2023-03-31T15:33:21.743Z,1.7
2023-03-31T15:36:23.770Z,2.8
2023-03-31T15:39:25.649Z,3.9
2023-03-31T15:42:27.703Z,3.7
2023-03-31T15:45:29.546Z,4.3
2023-03-31T15:48:31.509Z,3.6
2023-03-31T15:51:33.469Z,2.9
2023-03-31T15:54:35.493Z,1.7
2023-03-31T15:57:37.538Z,5.8
2023-03-31T16:00:39.453Z,4.2
2023-03-31T16:03:41.460Z,5.9
2023-03-31T16:06:46.027Z,4.5
2023-03-31T16:09:45.542Z,3.2
2023-03-31T16:12:47.484Z,4.4
2023-03-31T16:15:49.476Z,2.7
2023-03-31T16:18:51.420Z,2.3
2023-03-31T16:21:53.391Z,4
2023-03-31T16:24:55.360Z,4.1
2023-03-31T16:27:57.308Z,2.6
2023-03-31T16:30:59.296Z,7.2
2023-03-31T16:34:01.304Z,4.3
2023-03-31T16:37:05.009Z,4.7
2023-03-31T16:40:05.300Z,5.2
2023-03-31T16:43:07.269Z,7
2023-03-31T16:46:09.171Z,4.6
2023-03-31T16:49:11.178Z,6.2
2023-03-31T16:52:15.969Z,7.1
2023-03-31T16:55:17.935Z,3.7
2023-03-31T16:58:19.906Z,2.8
2023-03-31T17:01:21.849Z,6.6
2023-03-31T17:04:23.949Z,6.8
2023-03-31T17:07:25.860Z,5.7
2023-03-31T17:10:27.849Z,6.2
2023-03-31T17:13:29.791Z,6.4
2023-03-31T17:16:44.823Z,7
2023-03-31T17:19:33.706Z,5.9
2023-03-31T17:22:35.673Z,4
2023-03-31T17:25:37.661Z,5.1
2023-03-31T17:28:39.681Z,4.8
2023-03-31T17:31:41.722Z,7.3
2023-03-31T17:34:43.720Z,3.4
2023-03-31T17:37:45.660Z,6.6
2023-03-31T17:40:47.633Z,5.1
2023-03-31T17:43:49.597Z,4.9
2023-03-31T17:46:51.582Z,6.6
2023-03-31T17:49:53.603Z,7.1
2023-03-31T17:52:55.560Z,4.7
2023-03-31T17:55:57.479Z,6.3
2023-03-31T17:58:59.465Z,3.3
2023-03-31T18:02:01.532Z,6.8
2023-03-31T18:05:03.434Z,6.1
2023-03-31T18:08:05.341Z,5.7
2023-03-31T18:11:07.300Z,5.2
2023-03-31T18:14:09.258Z,7.2
2023-03-31T18:17:11.252Z,7.3
2023-03-31T18:20:16.255Z,6.9
2023-03-31T18:23:18.272Z,7.8
2023-03-31T18:26:20.262Z,6.1
2023-03-31T18:29:22.221Z,5.1
2023-03-31T18:32:24.275Z,5.7
2023-03-31T18:35:29.336Z,5.3
2023-03-31T18:38:31.236Z,6.7
2023-03-31T18:41:33.248Z,7
2023-03-31T18:44:35.191Z,6.8
2023-03-31T18:47:37.183Z,5.8
2023-03-31T18:50:39.162Z,7
2023-03-31T18:53:41.096Z,6.1
2023-03-31T18:56:43.155Z,4.8
2023-03-31T18:59:45.121Z,7.4
2023-03-31T19:02:47.146Z,4.7
2023-03-31T19:05:49.153Z,5.8
2023-03-31T19:08:51.172Z,6.6
2023-03-31T19:11:53.130Z,5.5
2023-03-31T19:14:55.052Z,4.5
2023-03-31T19:17:57.069Z,6.1
2023-03-31T19:20:58.977Z,6.4
2023-03-31T19:24:00.968Z,6.9
2023-03-31T19:27:02.960Z,5.9
2023-03-31T19:30:04.953Z,5.8
2023-03-31T19:33:06.907Z,6
2023-03-31T19:36:09.009Z,5.1
2023-03-31T19:39:10.924Z,3.9
2023-03-31T19:42:12.873Z,4.8
2023-03-31T19:45:17.674Z,5.9
2023-03-31T19:48:22.770Z,3.2
2023-03-31T19:51:24.967Z,4.6
2023-03-31T19:54:26.819Z,4.3
2023-03-31T19:57:28.870Z,4.2
2023-03-31T20:00:30.737Z,5.7
2023-03-31T20:03:33.006Z,4.4
2023-03-31T20:06:34.769Z,3.4
2023-03-31T20:09:36.657Z,4.3
2023-03-31T20:12:38.633Z,4.7
2023-03-31T20:15:40.961Z,3.5
2023-03-31T20:18:42.536Z,6.3
2023-03-31T20:21:44.487Z,3.6
2023-03-31T20:24:46.481Z,3.8
2023-03-31T20:27:48.486Z,3
2023-03-31T20:30:50.441Z,5.1
2023-03-31T20:33:52.390Z,2.9
2023-03-31T20:36:54.330Z,5
2023-03-31T20:39:56.333Z,3.1
2023-03-31T20:42:58.267Z,2.3
2023-03-31T20:46:00.232Z,2.7
2023-03-31T20:49:02.240Z,3.8
2023-03-31T20:52:04.154Z,3
2023-03-31T20:55:06.113Z,4.8
2023-03-31T20:58:08.115Z,6.2
2023-03-31T21:01:10.112Z,5.3
2023-03-31T21:04:12.073Z,6
2023-03-31T21:07:14.000Z,4.1
2023-03-31T21:10:15.945Z,2.8
2023-03-31T21:13:17.941Z,3.5
2023-03-31T21:16:19.934Z,4.5
2023-03-31T21:19:21.856Z,3.3
2023-03-31T21:22:23.808Z,2.6
2023-03-31T21:25:26.037Z,3
2023-03-31T21:28:27.762Z,5.1
2023-03-31T21:31:29.741Z,3.6
2023-03-31T21:34:31.657Z,4
2023-03-31T21:37:33.659Z,7.7
2023-03-31T21:40:35.579Z,3.4
2023-03-31T21:43:37.545Z,2.6
2023-03-31T21:46:39.630Z,5.9
2023-03-31T21:49:41.605Z,4.5
2023-03-31T21:52:43.486Z,4
2023-03-31T21:55:45.434Z,3.1
2023-03-31T21:58:47.404Z,4.1
2023-03-31T22:01:49.366Z,4.6
2023-03-31T22:04:51.408Z,6.1
2023-03-31T22:07:53.288Z,4.5
2023-03-31T22:10:55.256Z,2.7
2023-03-31T22:13:57.179Z,9.6
2023-03-31T22:16:59.168Z,3.4
2023-03-31T22:20:01.101Z,4.8
2023-03-31T22:23:03.046Z,6
2023-03-31T22:26:05.036Z,5.9
2023-03-31T22:29:06.976Z,4.9
2023-03-31T22:32:08.919Z,5.3
2023-03-31T22:35:10.920Z,4.6
2023-03-31T22:38:12.886Z,3.9
2023-03-31T22:41:14.817Z,4.8
2023-03-31T22:44:16.793Z,4.4
2023-03-31T22:47:18.771Z,2.9
2023-03-31T22:50:20.722Z,5.2
2023-03-31T22:53:22.691Z,4.7
2023-03-31T22:56:24.661Z,4.7
2023-03-31T22:59:26.664Z,5.3
2023-03-31T23:02:28.657Z,5.5
2023-03-31T23:05:30.888Z,5
2023-03-31T23:08:32.591Z,5.2
2023-03-31T23:11:34.555Z,4
2023-03-31T23:14:36.524Z,4.7
2023-03-31T23:17:38.493Z,3.7
2023-03-31T23:20:40.417Z,3.4
2023-03-31T23:23:42.424Z,5.2
2023-03-31T23:26:44.370Z,3.7
2023-03-31T23:29:46.324Z,4.4
2023-03-31T23:32:48.265Z,4.2
2023-03-31T23:35:50.327Z,4.5
2023-03-31T23:38:52.240Z,3.2
2023-03-31T23:41:54.206Z,6.1
2023-03-31T23:44:56.149Z,3
2023-03-31T23:47:58.139Z,4.7
2023-03-31T23:51:00.094Z,4.6
2023-03-31T23:54:02.038Z,4.7
2023-03-31T23:57:04.067Z,4.5
